sensor_id;sensor_type;location;lat;lon;timestamp;temperature;humidity
19665;DHT22;9980;51.020;7.772;2023-11-19T00:00:18;11.90;99.90
19665;DHT22;9980;51.020;7.772;2023-11-19T00:02:45;11.90;99.90
19665;DHT22;9980;51.020;7.772;2023-11-19T00:05:14;11.90;99.90
19665;DHT22;9980;51.020;7.772;2023-11-19T00:07:41;11.90;99.90
19665;DHT22;9980;51.020;7.772;2023-11-19T00:10:13;11.90;99.90
19665;DHT22;9980;51.020;7.772;2023-11-19T00:12:46;11.90;99.90
19665;DHT22;9980;51.020;7.772;2023-11-19T00:15:15;11.90;99.90
19665;DHT22;9980;51.020;7.772;2023-11-19T00:17:46;12.00;99.90
19665;DHT22;9980;51.020;7.772;2023-11-19T00:20:16;12.00;99.90
19665;DHT22;9980;51.020;7.772;2023-11-19T00:22:46;12.00;99.90
19665;DHT22;9980;51.020;7.772;2023-11-19T00:25:17;12.00;99.90
19665;DHT22;9980;51.020;7.772;2023-11-19T00:27:45;12.00;99.90
19665;DHT22;9980;51.020;7.772;2023-11-19T00:30:12;12.00;99.90
19665;DHT22;9980;51.020;7.772;2023-11-19T00:32:41;12.00;99.90
19665;DHT22;9980;51.020;7.772;2023-11-19T00:35:08;12.00;99.90
19665;DHT22;9980;51.020;7.772;2023-11-19T00:37:42;12.10;99.90
19665;DHT22;9980;51.020;7.772;2023-11-19T00:40:10;12.10;99.90
19665;DHT22;9980;51.020;7.772;2023-11-19T00:42:38;12.10;99.90
19665;DHT22;9980;51.020;7.772;2023-11-19T00:45:05;12.10;99.90
19665;DHT22;9980;51.020;7.772;2023-11-19T00:47:38;12.10;99.90
19665;DHT22;9980;51.020;7.772;2023-11-19T00:50:06;12.10;99.90
19665;DHT22;9980;51.020;7.772;2023-11-19T00:52:36;12.20;99.90
19665;DHT22;9980;51.020;7.772;2023-11-19T00:55:04;12.20;99.90
19665;DHT22;9980;51.020;7.772;2023-11-19T00:57:32;12.20;99.90
19665;DHT22;9980;51.020;7.772;2023-11-19T00:59:59;12.20;99.90
19665;DHT22;9980;51.020;7.772;2023-11-19T01:02:26;12.20;99.90
19665;DHT22;9980;51.020;7.772;2023-11-19T01:04:55;12.20;99.90
19665;DHT22;9980;51.020;7.772;2023-11-19T01:07:22;12.30;99.90
19665;DHT22;9980;51.020;7.772;2023-11-19T01:09:50;12.30;99.90
19665;DHT22;9980;51.020;7.772;2023-11-19T01:12:18;12.30;99.90
19665;DHT22;9980;51.020;7.772;2023-11-19T01:14:45;12.30;99.90
19665;DHT22;9980;51.020;7.772;2023-11-19T01:17:11;12.30;99.90
19665;DHT22;9980;51.020;7.772;2023-11-19T01:19:38;12.30;99.90
19665;DHT22;9980;51.020;7.772;2023-11-19T01:22:05;12.40;99.90
19665;DHT22;9980;51.020;7.772;2023-11-19T01:24:32;12.40;99.90
19665;DHT22;9980;51.020;7.772;2023-11-19T01:27:00;12.40;99.90
19665;DHT22;9980;51.020;7.772;2023-11-19T01:29:27;12.50;99.90
19665;DHT22;9980;51.020;7.772;2023-11-19T01:31:54;12.50;99.90
19665;DHT22;9980;51.020;7.772;2023-11-19T01:34:21;12.50;99.90
19665;DHT22;9980;51.020;7.772;2023-11-19T01:36:48;12.50;99.90
19665;DHT22;9980;51.020;7.772;2023-11-19T01:39:16;12.50;99.90
19665;DHT22;9980;51.020;7.772;2023-11-19T01:41:46;12.50;99.90
19665;DHT22;9980;51.020;7.772;2023-11-19T01:44:13;12.60;99.90
19665;DHT22;9980;51.020;7.772;2023-11-19T01:46:42;12.60;99.90
19665;DHT22;9980;51.020;7.772;2023-11-19T01:49:11;12.60;99.90
19665;DHT22;9980;51.020;7.772;2023-11-19T01:51:40;12.60;99.90
19665;DHT22;9980;51.020;7.772;2023-11-19T01:54:08;12.60;99.90
19665;DHT22;9980;51.020;7.772;2023-11-19T01:56:37;12.70;99.90
19665;DHT22;9980;51.020;7.772;2023-11-19T01:59:09;12.70;99.90
19665;DHT22;9980;51.020;7.772;2023-11-19T02:01:41;12.70;99.90
19665;DHT22;9980;51.020;7.772;2023-11-19T02:04:09;12.70;99.90
19665;DHT22;9980;51.020;7.772;2023-11-19T02:06:40;12.70;99.90
19665;DHT22;9980;51.020;7.772;2023-11-19T02:09:09;12.70;99.90
19665;DHT22;9980;51.020;7.772;2023-11-19T02:11:36;12.80;99.90
19665;DHT22;9980;51.020;7.772;2023-11-19T02:14:06;12.80;99.90
19665;DHT22;9980;51.020;7.772;2023-11-19T02:16:33;12.80;99.90
19665;DHT22;9980;51.020;7.772;2023-11-19T02:19:01;12.80;99.90
19665;DHT22;9980;51.020;7.772;2023-11-19T02:21:28;12.90;99.90
19665;DHT22;9980;51.020;7.772;2023-11-19T02:23:55;12.90;99.90
19665;DHT22;9980;51.020;7.772;2023-11-19T02:27:07;12.90;99.90
19665;DHT22;9980;51.020;7.772;2023-11-19T02:29:37;13.00;99.90
19665;DHT22;9980;51.020;7.772;2023-11-19T02:32:05;13.00;99.90
19665;DHT22;9980;51.020;7.772;2023-11-19T02:34:36;13.10;99.90
19665;DHT22;9980;51.020;7.772;2023-11-19T02:37:03;13.10;99.90
19665;DHT22;9980;51.020;7.772;2023-11-19T02:39:31;13.10;99.90
19665;DHT22;9980;51.020;7.772;2023-11-19T02:41:58;13.10;99.90
19665;DHT22;9980;51.020;7.772;2023-11-19T02:44:25;13.20;99.90
19665;DHT22;9980;51.020;7.772;2023-11-19T02:46:54;13.20;99.90
19665;DHT22;9980;51.020;7.772;2023-11-19T02:49:23;13.20;99.90
19665;DHT22;9980;51.020;7.772;2023-11-19T02:51:50;13.30;99.90
19665;DHT22;9980;51.020;7.772;2023-11-19T02:54:17;13.30;99.90
19665;DHT22;9980;51.020;7.772;2023-11-19T02:56:44;13.40;99.90
19665;DHT22;9980;51.020;7.772;2023-11-19T02:59:14;13.40;99.90
19665;DHT22;9980;51.020;7.772;2023-11-19T03:01:54;13.40;99.90
19665;DHT22;9980;51.020;7.772;2023-11-19T03:04:22;13.50;99.90
19665;DHT22;9980;51.020;7.772;2023-11-19T03:06:49;13.50;99.90
19665;DHT22;9980;51.020;7.772;2023-11-19T03:09:16;13.50;99.90
19665;DHT22;9980;51.020;7.772;2023-11-19T03:11:43;13.60;99.90
19665;DHT22;9980;51.020;7.772;2023-11-19T03:14:10;13.60;99.90
19665;DHT22;9980;51.020;7.772;2023-11-19T03:16:37;13.60;99.90
19665;DHT22;9980;51.020;7.772;2023-11-19T03:19:04;13.60;99.90
19665;DHT22;9980;51.020;7.772;2023-11-19T03:21:31;13.60;99.90
19665;DHT22;9980;51.020;7.772;2023-11-19T03:23:58;13.70;99.90
19665;DHT22;9980;51.020;7.772;2023-11-19T03:26:28;13.70;99.90
19665;DHT22;9980;51.020;7.772;2023-11-19T03:28:55;13.70;99.90
19665;DHT22;9980;51.020;7.772;2023-11-19T03:31:23;13.70;99.90
19665;DHT22;9980;51.020;7.772;2023-11-19T03:33:52;13.70;99.90
19665;DHT22;9980;51.020;7.772;2023-11-19T03:36:21;13.80;99.90
19665;DHT22;9980;51.020;7.772;2023-11-19T03:38:51;13.80;99.90
19665;DHT22;9980;51.020;7.772;2023-11-19T03:41:19;13.80;99.90
19665;DHT22;9980;51.020;7.772;2023-11-19T03:43:46;13.90;99.90
19665;DHT22;9980;51.020;7.772;2023-11-19T03:46:20;13.90;99.90
19665;DHT22;9980;51.020;7.772;2023-11-19T03:48:51;13.90;99.90
19665;DHT22;9980;51.020;7.772;2023-11-19T03:51:18;13.90;99.90
19665;DHT22;9980;51.020;7.772;2023-11-19T03:53:45;13.90;99.90
19665;DHT22;9980;51.020;7.772;2023-11-19T03:56:13;13.90;99.90
19665;DHT22;9980;51.020;7.772;2023-11-19T03:58:40;14.00;99.90
19665;DHT22;9980;51.020;7.772;2023-11-19T04:01:11;14.00;99.90
19665;DHT22;9980;51.020;7.772;2023-11-19T04:03:40;14.00;99.90
19665;DHT22;9980;51.020;7.772;2023-11-19T04:06:16;14.00;99.90
19665;DHT22;9980;51.020;7.772;2023-11-19T04:08:43;14.00;99.90
19665;DHT22;9980;51.020;7.772;2023-11-19T04:11:11;14.00;99.90
19665;DHT22;9980;51.020;7.772;2023-11-19T04:13:38;14.10;99.90
19665;DHT22;9980;51.020;7.772;2023-11-19T04:16:05;14.10;99.90
19665;DHT22;9980;51.020;7.772;2023-11-19T04:18:32;14.10;99.90
19665;DHT22;9980;51.020;7.772;2023-11-19T04:20:59;14.10;99.90
19665;DHT22;9980;51.020;7.772;2023-11-19T04:23:26;14.10;99.90
19665;DHT22;9980;51.020;7.772;2023-11-19T04:25:53;14.10;99.90
19665;DHT22;9980;51.020;7.772;2023-11-19T04:28:20;14.10;99.90
19665;DHT22;9980;51.020;7.772;2023-11-19T04:30:47;14.20;99.90
19665;DHT22;9980;51.020;7.772;2023-11-19T04:33:14;14.10;99.90
19665;DHT22;9980;51.020;7.772;2023-11-19T04:35:41;14.20;99.90
19665;DHT22;9980;51.020;7.772;2023-11-19T04:38:08;14.20;99.90
19665;DHT22;9980;51.020;7.772;2023-11-19T04:40:35;14.20;99.90
19665;DHT22;9980;51.020;7.772;2023-11-19T04:43:02;14.20;99.90
19665;DHT22;9980;51.020;7.772;2023-11-19T04:45:29;14.20;99.90
19665;DHT22;9980;51.020;7.772;2023-11-19T04:47:56;14.20;99.90
19665;DHT22;9980;51.020;7.772;2023-11-19T04:50:23;14.20;99.90
19665;DHT22;9980;51.020;7.772;2023-11-19T04:52:50;14.20;99.90
19665;DHT22;9980;51.020;7.772;2023-11-19T04:55:17;14.20;99.90
19665;DHT22;9980;51.020;7.772;2023-11-19T04:57:44;14.20;99.90
19665;DHT22;9980;51.020;7.772;2023-11-19T05:00:12;14.20;99.90
19665;DHT22;9980;51.020;7.772;2023-11-19T05:02:43;14.20;99.90
19665;DHT22;9980;51.020;7.772;2023-11-19T05:05:11;14.20;99.90
19665;DHT22;9980;51.020;7.772;2023-11-19T05:07:39;14.20;99.90
19665;DHT22;9980;51.020;7.772;2023-11-19T05:10:06;14.20;99.90
19665;DHT22;9980;51.020;7.772;2023-11-19T05:12:33;14.20;99.90
19665;DHT22;9980;51.020;7.772;2023-11-19T05:15:00;14.30;99.90
19665;DHT22;9980;51.020;7.772;2023-11-19T05:17:27;14.30;99.90
19665;DHT22;9980;51.020;7.772;2023-11-19T05:19:54;14.30;99.90
19665;DHT22;9980;51.020;7.772;2023-11-19T05:22:21;14.30;99.90
19665;DHT22;9980;51.020;7.772;2023-11-19T05:24:48;14.30;99.90
19665;DHT22;9980;51.020;7.772;2023-11-19T05:27:16;14.30;99.90
19665;DHT22;9980;51.020;7.772;2023-11-19T05:29:43;14.30;99.90
19665;DHT22;9980;51.020;7.772;2023-11-19T05:32:10;14.30;99.90
19665;DHT22;9980;51.020;7.772;2023-11-19T05:34:38;14.30;99.90
19665;DHT22;9980;51.020;7.772;2023-11-19T05:37:18;14.30;99.90
19665;DHT22;9980;51.020;7.772;2023-11-19T05:39:45;14.30;99.90
19665;DHT22;9980;51.020;7.772;2023-11-19T05:42:12;14.30;99.90
19665;DHT22;9980;51.020;7.772;2023-11-19T05:44:39;14.30;99.90
19665;DHT22;9980;51.020;7.772;2023-11-19T05:47:07;14.30;99.90
19665;DHT22;9980;51.020;7.772;2023-11-19T05:49:35;14.30;99.90
19665;DHT22;9980;51.020;7.772;2023-11-19T05:52:02;14.30;99.90
19665;DHT22;9980;51.020;7.772;2023-11-19T05:54:30;14.30;99.90
19665;DHT22;9980;51.020;7.772;2023-11-19T05:56:58;14.30;99.90
19665;DHT22;9980;51.020;7.772;2023-11-19T05:59:25;14.30;99.90
19665;DHT22;9980;51.020;7.772;2023-11-19T06:01:52;14.30;99.90
19665;DHT22;9980;51.020;7.772;2023-11-19T06:04:19;14.30;99.90
19665;DHT22;9980;51.020;7.772;2023-11-19T06:06:46;14.30;99.90
19665;DHT22;9980;51.020;7.772;2023-11-19T06:09:13;14.30;99.90
19665;DHT22;9980;51.020;7.772;2023-11-19T06:11:41;14.30;99.90
19665;DHT22;9980;51.020;7.772;2023-11-19T06:14:08;14.30;99.90
19665;DHT22;9980;51.020;7.772;2023-11-19T06:16:35;14.20;99.90
19665;DHT22;9980;51.020;7.772;2023-11-19T06:19:03;14.30;99.90
19665;DHT22;9980;51.020;7.772;2023-11-19T06:21:31;14.20;99.90
19665;DHT22;9980;51.020;7.772;2023-11-19T06:23:58;14.20;99.90
19665;DHT22;9980;51.020;7.772;2023-11-19T06:26:26;14.20;99.90
19665;DHT22;9980;51.020;7.772;2023-11-19T06:28:53;14.20;99.90
19665;DHT22;9980;51.020;7.772;2023-11-19T06:31:20;14.20;99.90
19665;DHT22;9980;51.020;7.772;2023-11-19T06:33:48;14.20;99.90
19665;DHT22;9980;51.020;7.772;2023-11-19T06:36:15;14.20;99.90
19665;DHT22;9980;51.020;7.772;2023-11-19T06:38:43;14.20;99.90
19665;DHT22;9980;51.020;7.772;2023-11-19T06:41:10;14.20;99.90
19665;DHT22;9980;51.020;7.772;2023-11-19T06:43:37;14.10;99.90
19665;DHT22;9980;51.020;7.772;2023-11-19T06:46:15;14.10;99.90
19665;DHT22;9980;51.020;7.772;2023-11-19T06:48:45;14.10;99.90
19665;DHT22;9980;51.020;7.772;2023-11-19T06:51:12;14.10;99.90
19665;DHT22;9980;51.020;7.772;2023-11-19T06:53:40;14.10;99.90
19665;DHT22;9980;51.020;7.772;2023-11-19T06:56:21;14.10;99.90
19665;DHT22;9980;51.020;7.772;2023-11-19T06:58:52;14.10;99.90
19665;DHT22;9980;51.020;7.772;2023-11-19T07:01:20;14.10;99.90
19665;DHT22;9980;51.020;7.772;2023-11-19T07:03:47;14.10;99.90
19665;DHT22;9980;51.020;7.772;2023-11-19T07:06:15;14.10;99.90
19665;DHT22;9980;51.020;7.772;2023-11-19T07:08:42;14.10;99.90
19665;DHT22;9980;51.020;7.772;2023-11-19T07:11:13;14.10;99.90
19665;DHT22;9980;51.020;7.772;2023-11-19T07:13:42;14.10;99.90
19665;DHT22;9980;51.020;7.772;2023-11-19T07:16:09;14.10;99.90
19665;DHT22;9980;51.020;7.772;2023-11-19T07:18:39;14.10;99.90
19665;DHT22;9980;51.020;7.772;2023-11-19T07:21:06;14.10;99.90
19665;DHT22;9980;51.020;7.772;2023-11-19T07:23:34;14.10;99.90
19665;DHT22;9980;51.020;7.772;2023-11-19T07:26:04;14.10;99.90
19665;DHT22;9980;51.020;7.772;2023-11-19T07:28:31;14.10;99.90
19665;DHT22;9980;51.020;7.772;2023-11-19T07:31:01;14.10;99.90
19665;DHT22;9980;51.020;7.772;2023-11-19T07:33:28;14.10;99.90
19665;DHT22;9980;51.020;7.772;2023-11-19T07:35:55;14.00;99.90
19665;DHT22;9980;51.020;7.772;2023-11-19T07:38:23;14.00;99.90
19665;DHT22;9980;51.020;7.772;2023-11-19T07:40:50;14.10;99.90
19665;DHT22;9980;51.020;7.772;2023-11-19T07:43:20;14.00;99.90
19665;DHT22;9980;51.020;7.772;2023-11-19T07:45:46;14.10;99.90
19665;DHT22;9980;51.020;7.772;2023-11-19T07:48:13;14.10;99.90
19665;DHT22;9980;51.020;7.772;2023-11-19T07:50:42;14.10;99.90
19665;DHT22;9980;51.020;7.772;2023-11-19T07:53:09;14.10;99.90
19665;DHT22;9980;51.020;7.772;2023-11-19T07:55:36;14.10;99.90
19665;DHT22;9980;51.020;7.772;2023-11-19T07:58:08;14.10;99.90
19665;DHT22;9980;51.020;7.772;2023-11-19T08:00:36;14.10;99.90
19665;DHT22;9980;51.020;7.772;2023-11-19T08:03:04;14.10;99.90
19665;DHT22;9980;51.020;7.772;2023-11-19T08:05:31;14.10;99.90
19665;DHT22;9980;51.020;7.772;2023-11-19T08:07:58;14.10;99.90
19665;DHT22;9980;51.020;7.772;2023-11-19T08:10:26;14.10;99.90
19665;DHT22;9980;51.020;7.772;2023-11-19T08:12:53;14.10;99.90
19665;DHT22;9980;51.020;7.772;2023-11-19T08:15:20;14.20;99.90
19665;DHT22;9980;51.020;7.772;2023-11-19T08:17:50;14.20;99.90
19665;DHT22;9980;51.020;7.772;2023-11-19T08:20:18;14.20;99.90
19665;DHT22;9980;51.020;7.772;2023-11-19T08:22:45;14.20;99.90
19665;DHT22;9980;51.020;7.772;2023-11-19T08:25:12;14.20;99.90
19665;DHT22;9980;51.020;7.772;2023-11-19T08:27:41;14.20;99.90
19665;DHT22;9980;51.020;7.772;2023-11-19T08:30:10;14.20;99.90
19665;DHT22;9980;51.020;7.772;2023-11-19T08:32:37;14.20;99.90
19665;DHT22;9980;51.020;7.772;2023-11-19T08:35:04;14.20;99.90
19665;DHT22;9980;51.020;7.772;2023-11-19T08:37:32;14.20;99.90
19665;DHT22;9980;51.020;7.772;2023-11-19T08:39:59;14.20;99.90
19665;DHT22;9980;51.020;7.772;2023-11-19T08:42:27;14.20;99.90
19665;DHT22;9980;51.020;7.772;2023-11-19T08:44:55;14.30;99.90
19665;DHT22;9980;51.020;7.772;2023-11-19T08:47:21;14.30;99.90
19665;DHT22;9980;51.020;7.772;2023-11-19T08:49:52;14.30;99.90
19665;DHT22;9980;51.020;7.772;2023-11-19T08:52:23;14.30;99.90
19665;DHT22;9980;51.020;7.772;2023-11-19T08:54:49;14.40;99.90
19665;DHT22;9980;51.020;7.772;2023-11-19T08:57:16;14.40;99.90
19665;DHT22;9980;51.020;7.772;2023-11-19T08:59:44;14.40;99.90
19665;DHT22;9980;51.020;7.772;2023-11-19T09:02:12;14.40;99.90
19665;DHT22;9980;51.020;7.772;2023-11-19T09:04:40;14.50;99.90
19665;DHT22;9980;51.020;7.772;2023-11-19T09:07:07;14.50;99.90
19665;DHT22;9980;51.020;7.772;2023-11-19T09:09:36;14.50;99.90
19665;DHT22;9980;51.020;7.772;2023-11-19T09:12:03;14.50;99.90
19665;DHT22;9980;51.020;7.772;2023-11-19T09:14:31;14.60;99.90
19665;DHT22;9980;51.020;7.772;2023-11-19T09:16:58;14.60;99.90
19665;DHT22;9980;51.020;7.772;2023-11-19T09:19:26;14.60;99.90
19665;DHT22;9980;51.020;7.772;2023-11-19T09:21:54;14.60;99.90
19665;DHT22;9980;51.020;7.772;2023-11-19T09:24:21;14.60;99.90
19665;DHT22;9980;51.020;7.772;2023-11-19T09:26:48;14.60;99.90
19665;DHT22;9980;51.020;7.772;2023-11-19T09:29:15;14.70;99.90
19665;DHT22;9980;51.020;7.772;2023-11-19T09:31:43;14.70;99.90
19665;DHT22;9980;51.020;7.772;2023-11-19T09:34:10;14.70;99.90
19665;DHT22;9980;51.020;7.772;2023-11-19T09:36:37;14.70;99.90
19665;DHT22;9980;51.020;7.772;2023-11-19T09:39:04;14.70;99.90
19665;DHT22;9980;51.020;7.772;2023-11-19T09:41:32;14.70;99.90
19665;DHT22;9980;51.020;7.772;2023-11-19T09:43:59;14.80;99.90
19665;DHT22;9980;51.020;7.772;2023-11-19T09:46:26;14.80;99.90
19665;DHT22;9980;51.020;7.772;2023-11-19T09:48:56;14.80;99.90
19665;DHT22;9980;51.020;7.772;2023-11-19T09:51:26;14.80;99.90
19665;DHT22;9980;51.020;7.772;2023-11-19T09:53:53;14.80;99.90
19665;DHT22;9980;51.020;7.772;2023-11-19T09:56:20;14.80;99.90
19665;DHT22;9980;51.020;7.772;2023-11-19T09:58:47;14.80;99.90
19665;DHT22;9980;51.020;7.772;2023-11-19T10:01:15;14.80;99.90
19665;DHT22;9980;51.020;7.772;2023-11-19T10:03:55;14.80;99.90
19665;DHT22;9980;51.020;7.772;2023-11-19T10:06:25;14.90;99.90
19665;DHT22;9980;51.020;7.772;2023-11-19T10:08:53;14.90;99.90
19665;DHT22;9980;51.020;7.772;2023-11-19T10:11:21;14.90;99.90
19665;DHT22;9980;51.020;7.772;2023-11-19T10:13:49;14.90;99.90
19665;DHT22;9980;51.020;7.772;2023-11-19T10:16:17;14.90;99.90
19665;DHT22;9980;51.020;7.772;2023-11-19T10:18:49;14.90;99.90
19665;DHT22;9980;51.020;7.772;2023-11-19T10:21:19;14.90;99.90
19665;DHT22;9980;51.020;7.772;2023-11-19T10:23:50;14.90;99.90
19665;DHT22;9980;51.020;7.772;2023-11-19T10:26:19;14.90;99.90
19665;DHT22;9980;51.020;7.772;2023-11-19T10:28:47;14.90;99.90
19665;DHT22;9980;51.020;7.772;2023-11-19T10:31:16;14.90;99.90
19665;DHT22;9980;51.020;7.772;2023-11-19T10:33:44;15.00;99.90
19665;DHT22;9980;51.020;7.772;2023-11-19T10:36:13;15.00;99.90
19665;DHT22;9980;51.020;7.772;2023-11-19T10:38:54;15.00;99.90
19665;DHT22;9980;51.020;7.772;2023-11-19T10:41:30;15.00;99.90
19665;DHT22;9980;51.020;7.772;2023-11-19T10:43:59;15.00;99.90
19665;DHT22;9980;51.020;7.772;2023-11-19T10:46:44;15.10;99.90
19665;DHT22;9980;51.020;7.772;2023-11-19T10:49:11;15.00;99.90
19665;DHT22;9980;51.020;7.772;2023-11-19T10:51:45;15.10;99.90
19665;DHT22;9980;51.020;7.772;2023-11-19T10:54:19;15.10;99.90
19665;DHT22;9980;51.020;7.772;2023-11-19T10:56:55;15.10;99.90
19665;DHT22;9980;51.020;7.772;2023-11-19T10:59:29;15.10;99.90
19665;DHT22;9980;51.020;7.772;2023-11-19T11:02:03;15.20;99.90
19665;DHT22;9980;51.020;7.772;2023-11-19T11:04:39;15.20;99.90
19665;DHT22;9980;51.020;7.772;2023-11-19T11:07:07;15.20;99.90
19665;DHT22;9980;51.020;7.772;2023-11-19T11:09:35;15.30;99.90
19665;DHT22;9980;51.020;7.772;2023-11-19T11:12:04;15.30;99.90
19665;DHT22;9980;51.020;7.772;2023-11-19T11:14:34;15.30;99.90
19665;DHT22;9980;51.020;7.772;2023-11-19T11:17:04;15.30;99.90
19665;DHT22;9980;51.020;7.772;2023-11-19T11:19:35;15.30;99.90
19665;DHT22;9980;51.020;7.772;2023-11-19T11:22:03;15.30;99.90
19665;DHT22;9980;51.020;7.772;2023-11-19T11:24:50;15.30;99.90
19665;DHT22;9980;51.020;7.772;2023-11-19T11:28:02;15.30;99.90
19665;DHT22;9980;51.020;7.772;2023-11-19T11:33:41;15.40;99.90
19665;DHT22;9980;51.020;7.772;2023-11-19T11:36:32;15.40;99.90
19665;DHT22;9980;51.020;7.772;2023-11-19T11:39:06;15.40;99.90
19665;DHT22;9980;51.020;7.772;2023-11-19T11:41:34;15.40;99.90
19665;DHT22;9980;51.020;7.772;2023-11-19T11:44:01;15.50;99.90
19665;DHT22;9980;51.020;7.772;2023-11-19T11:49:03;15.50;99.90
19665;DHT22;9980;51.020;7.772;2023-11-19T11:57:10;15.50;99.90
19665;DHT22;9980;51.020;7.772;2023-11-19T11:59:50;15.50;99.90
19665;DHT22;9980;51.020;7.772;2023-11-19T12:02:21;15.50;99.90
19665;DHT22;9980;51.020;7.772;2023-11-19T12:04:50;15.50;99.90
19665;DHT22;9980;51.020;7.772;2023-11-19T12:07:21;15.50;99.90
19665;DHT22;9980;51.020;7.772;2023-11-19T12:10:06;15.50;99.90
19665;DHT22;9980;51.020;7.772;2023-11-19T12:12:36;15.40;99.90
19665;DHT22;9980;51.020;7.772;2023-11-19T12:15:10;15.40;99.90
19665;DHT22;9980;51.020;7.772;2023-11-19T12:17:41;15.40;99.90
19665;DHT22;9980;51.020;7.772;2023-11-19T12:20:12;15.40;99.90
19665;DHT22;9980;51.020;7.772;2023-11-19T12:22:40;15.40;99.90
19665;DHT22;9980;51.020;7.772;2023-11-19T12:25:11;15.30;99.90
19665;DHT22;9980;51.020;7.772;2023-11-19T12:27:48;15.30;99.90
19665;DHT22;9980;51.020;7.772;2023-11-19T12:30:24;15.30;99.90
19665;DHT22;9980;51.020;7.772;2023-11-19T12:32:53;15.30;99.90
19665;DHT22;9980;51.020;7.772;2023-11-19T12:35:21;15.30;99.90
19665;DHT22;9980;51.020;7.772;2023-11-19T12:37:51;15.30;99.90
19665;DHT22;9980;51.020;7.772;2023-11-19T12:40:21;15.40;99.90
19665;DHT22;9980;51.020;7.772;2023-11-19T12:42:54;15.40;99.90
19665;DHT22;9980;51.020;7.772;2023-11-19T12:45:22;15.40;99.90
19665;DHT22;9980;51.020;7.772;2023-11-19T12:48:08;15.50;99.90
19665;DHT22;9980;51.020;7.772;2023-11-19T12:50:56;15.50;99.90
19665;DHT22;9980;51.020;7.772;2023-11-19T12:53:26;15.60;99.90
19665;DHT22;9980;51.020;7.772;2023-11-19T12:55:54;15.50;99.90
19665;DHT22;9980;51.020;7.772;2023-11-19T12:58:33;15.50;99.90
19665;DHT22;9980;51.020;7.772;2023-11-19T13:01:03;15.50;99.90
19665;DHT22;9980;51.020;7.772;2023-11-19T13:03:38;15.50;99.90
19665;DHT22;9980;51.020;7.772;2023-11-19T13:06:11;15.50;99.90
19665;DHT22;9980;51.020;7.772;2023-11-19T13:08:41;15.50;99.90
19665;DHT22;9980;51.020;7.772;2023-11-19T13:11:12;15.50;99.90
19665;DHT22;9980;51.020;7.772;2023-11-19T13:14:03;15.50;99.90
19665;DHT22;9980;51.020;7.772;2023-11-19T13:16:38;15.40;99.90
19665;DHT22;9980;51.020;7.772;2023-11-19T13:19:06;15.40;99.90
19665;DHT22;9980;51.020;7.772;2023-11-19T13:21:33;15.40;99.90
19665;DHT22;9980;51.020;7.772;2023-11-19T13:24:00;15.40;99.90
19665;DHT22;9980;51.020;7.772;2023-11-19T13:26:27;15.30;99.90
19665;DHT22;9980;51.020;7.772;2023-11-19T13:28:54;15.30;99.90
19665;DHT22;9980;51.020;7.772;2023-11-19T13:31:21;15.30;99.90
19665;DHT22;9980;51.020;7.772;2023-11-19T13:33:49;15.30;99.90
19665;DHT22;9980;51.020;7.772;2023-11-19T13:36:16;15.20;99.90
19665;DHT22;9980;51.020;7.772;2023-11-19T13:38:44;15.20;99.90
19665;DHT22;9980;51.020;7.772;2023-11-19T13:41:11;15.20;99.90
19665;DHT22;9980;51.020;7.772;2023-11-19T13:43:39;15.20;99.90
19665;DHT22;9980;51.020;7.772;2023-11-19T13:46:07;15.20;99.90
19665;DHT22;9980;51.020;7.772;2023-11-19T13:48:37;15.10;99.90
19665;DHT22;9980;51.020;7.772;2023-11-19T13:51:05;15.10;99.90
19665;DHT22;9980;51.020;7.772;2023-11-19T13:53:32;15.10;99.90
19665;DHT22;9980;51.020;7.772;2023-11-19T13:56:17;15.00;99.90
19665;DHT22;9980;51.020;7.772;2023-11-19T13:58:44;15.00;99.90
19665;DHT22;9980;51.020;7.772;2023-11-19T14:01:11;15.00;99.90
19665;DHT22;9980;51.020;7.772;2023-11-19T14:03:40;14.90;99.90
19665;DHT22;9980;51.020;7.772;2023-11-19T14:06:08;14.90;99.90
19665;DHT22;9980;51.020;7.772;2023-11-19T14:08:36;14.80;99.90
19665;DHT22;9980;51.020;7.772;2023-11-19T14:11:03;14.80;99.90
19665;DHT22;9980;51.020;7.772;2023-11-19T14:13:31;14.70;99.90
19665;DHT22;9980;51.020;7.772;2023-11-19T14:15:59;14.70;99.90
19665;DHT22;9980;51.020;7.772;2023-11-19T14:18:27;14.70;99.90
19665;DHT22;9980;51.020;7.772;2023-11-19T14:20:54;14.70;99.90
19665;DHT22;9980;51.020;7.772;2023-11-19T14:23:21;14.60;99.90
19665;DHT22;9980;51.020;7.772;2023-11-19T14:25:48;14.60;99.90
19665;DHT22;9980;51.020;7.772;2023-11-19T14:28:16;14.50;99.90
19665;DHT22;9980;51.020;7.772;2023-11-19T14:30:43;14.60;99.90
19665;DHT22;9980;51.020;7.772;2023-11-19T14:33:12;14.50;99.90
19665;DHT22;9980;51.020;7.772;2023-11-19T14:35:39;14.50;99.90
19665;DHT22;9980;51.020;7.772;2023-11-19T14:38:06;14.40;99.90
19665;DHT22;9980;51.020;7.772;2023-11-19T14:40:36;14.40;99.90
19665;DHT22;9980;51.020;7.772;2023-11-19T14:43:06;14.40;99.90
19665;DHT22;9980;51.020;7.772;2023-11-19T14:45:37;14.40;99.90
19665;DHT22;9980;51.020;7.772;2023-11-19T14:48:15;14.40;99.90
19665;DHT22;9980;51.020;7.772;2023-11-19T14:50:42;14.40;99.90
19665;DHT22;9980;51.020;7.772;2023-11-19T14:53:11;14.30;99.90
19665;DHT22;9980;51.020;7.772;2023-11-19T14:55:38;14.30;99.90
19665;DHT22;9980;51.020;7.772;2023-11-19T14:58:05;14.30;99.90
19665;DHT22;9980;51.020;7.772;2023-11-19T15:00:37;14.30;99.90
19665;DHT22;9980;51.020;7.772;2023-11-19T15:03:04;14.30;99.90
19665;DHT22;9980;51.020;7.772;2023-11-19T15:05:33;14.30;99.90
19665;DHT22;9980;51.020;7.772;2023-11-19T15:08:01;14.20;99.90
19665;DHT22;9980;51.020;7.772;2023-11-19T15:10:29;14.20;99.90
19665;DHT22;9980;51.020;7.772;2023-11-19T15:12:56;14.20;99.90
19665;DHT22;9980;51.020;7.772;2023-11-19T15:15:24;14.20;99.90
19665;DHT22;9980;51.020;7.772;2023-11-19T15:17:54;14.20;99.90
19665;DHT22;9980;51.020;7.772;2023-11-19T15:20:21;14.20;99.90
19665;DHT22;9980;51.020;7.772;2023-11-19T15:22:48;14.20;99.90
19665;DHT22;9980;51.020;7.772;2023-11-19T15:25:16;14.20;99.90
19665;DHT22;9980;51.020;7.772;2023-11-19T15:27:43;14.10;99.90
19665;DHT22;9980;51.020;7.772;2023-11-19T15:30:10;14.10;99.90
19665;DHT22;9980;51.020;7.772;2023-11-19T15:32:38;14.10;99.90
19665;DHT22;9980;51.020;7.772;2023-11-19T15:35:06;14.10;99.90
19665;DHT22;9980;51.020;7.772;2023-11-19T15:37:34;14.10;99.90
19665;DHT22;9980;51.020;7.772;2023-11-19T15:40:02;14.10;99.90
19665;DHT22;9980;51.020;7.772;2023-11-19T15:42:31;14.10;99.90
19665;DHT22;9980;51.020;7.772;2023-11-19T15:44:58;14.00;99.90
19665;DHT22;9980;51.020;7.772;2023-11-19T15:47:25;14.00;99.90
19665;DHT22;9980;51.020;7.772;2023-11-19T15:49:53;14.00;99.90
19665;DHT22;9980;51.020;7.772;2023-11-19T15:52:20;14.00;99.90
19665;DHT22;9980;51.020;7.772;2023-11-19T15:54:48;14.00;99.90
19665;DHT22;9980;51.020;7.772;2023-11-19T15:57:15;14.00;99.90
19665;DHT22;9980;51.020;7.772;2023-11-19T15:59:43;13.90;99.90
19665;DHT22;9980;51.020;7.772;2023-11-19T16:02:10;13.90;99.90
19665;DHT22;9980;51.020;7.772;2023-11-19T16:04:38;13.90;99.90
19665;DHT22;9980;51.020;7.772;2023-11-19T16:07:06;13.90;99.90